createdAt,value
2022-12-22T00:00:21.478Z,65.41
2022-12-22T00:03:07.801Z,64.88
2022-12-22T00:05:54.119Z,64.83
2022-12-22T00:08:39.848Z,64.22
2022-12-22T00:11:30.775Z,64.82
2022-12-22T00:14:17.576Z,65.17
2022-12-22T00:17:04.827Z,64.12
2022-12-22T00:19:50.939Z,64.40
2022-12-22T00:22:45.083Z,65.56
2022-12-22T00:25:35.577Z,65.11
2022-12-22T00:28:32.259Z,64.49
2022-12-22T00:31:18.446Z,64.25
2022-12-22T00:34:04.656Z,64.03
2022-12-22T00:36:50.315Z,64.31
2022-12-22T00:39:36.473Z,64.96
2022-12-22T00:42:22.592Z,64.39
2022-12-22T00:45:08.698Z,66.92
2022-12-22T00:47:54.786Z,66.35
2022-12-22T00:50:51.862Z,66.21
2022-12-22T00:53:40.105Z,65.44
2022-12-22T00:56:28.780Z,64.62
2022-12-22T00:59:18.827Z,63.34
2022-12-22T01:02:05.305Z,63.53
2022-12-22T01:04:51.484Z,63.85
2022-12-22T01:07:40.669Z,63.74
2022-12-22T01:10:33.398Z,64.38
2022-12-22T01:13:19.588Z,64.04
2022-12-22T01:16:05.627Z,64.54
2022-12-22T01:18:51.783Z,64.54
2022-12-22T01:21:40.047Z,64.36
2022-12-22T01:24:36.823Z,64.49
2022-12-22T01:27:23.682Z,65.04
2022-12-22T01:30:09.671Z,64.84
2022-12-22T01:32:55.879Z,64.49
2022-12-22T01:35:51.377Z,63.61
2022-12-22T01:38:38.353Z,63.94
2022-12-22T01:41:33.198Z,63.93
2022-12-22T01:44:19.424Z,63.80
2022-12-22T01:47:06.664Z,62.86
2022-12-22T01:49:59.800Z,62.92
2022-12-22T01:52:53.218Z,62.94
2022-12-22T01:55:43.763Z,63.14
2022-12-22T01:58:45.934Z,63.20
2022-12-22T02:01:32.334Z,63.97
2022-12-22T02:04:24.512Z,63.96
2022-12-22T02:07:22.821Z,63.38
2022-12-22T02:11:06.452Z,62.57
2022-12-22T02:14:29.504Z,62.96
2022-12-22T02:17:47.385Z,62.09
2022-12-22T02:21:00.992Z,62.30
2022-12-22T02:24:29.815Z,61.92
2022-12-22T02:27:20.492Z,61.94
2022-12-22T02:30:26.843Z,61.68
2022-12-22T02:33:13.667Z,61.42
2022-12-22T02:36:23.779Z,62.23
2022-12-22T02:39:39.233Z,60.88
2022-12-22T02:43:10.172Z,60.26
2022-12-22T02:46:45.005Z,58.72
2022-12-22T02:49:49.982Z,58.18
2022-12-22T02:52:53.248Z,59.64
2022-12-22T02:55:40.461Z,60.14
2022-12-22T02:58:26.822Z,60.13
2022-12-22T03:01:13.247Z,60.74
2022-12-22T03:03:59.573Z,61.08
2022-12-22T03:06:45.874Z,61.18
2022-12-22T03:09:32.202Z,60.70
2022-12-22T03:12:18.318Z,60.99
2022-12-22T03:15:04.345Z,62.42
2022-12-22T03:17:50.521Z,62.85
2022-12-22T03:20:36.523Z,61.46
2022-12-22T03:23:26.618Z,61.08
2022-12-22T03:25:54.185Z,60.04
2022-12-22T03:28:28.811Z,60.14
2022-12-22T03:31:01.665Z,60.53
2022-12-22T03:33:30.799Z,59.69
2022-12-22T03:36:00.385Z,60.00
2022-12-22T03:38:28.463Z,59.98
2022-12-22T03:40:56.023Z,61.11
2022-12-22T03:43:42.750Z,60.67
2022-12-22T03:46:32.676Z,61.14
2022-12-22T03:49:11.949Z,61.86
2022-12-22T03:51:47.568Z,61.38
2022-12-22T03:54:25.446Z,60.20
2022-12-22T03:56:54.231Z,59.81
2022-12-22T03:59:22.050Z,59.90
2022-12-22T04:01:53.579Z,60.17
2022-12-22T04:04:25.691Z,59.12
2022-12-22T04:06:57.779Z,59.24
2022-12-22T04:09:27.169Z,60.49
2022-12-22T04:12:13.667Z,60.25
2022-12-22T04:14:40.909Z,59.92
2022-12-22T04:17:09.834Z,58.20
2022-12-22T04:19:37.238Z,59.43
2022-12-22T04:22:04.710Z,59.83
2022-12-22T04:24:31.949Z,60.15
2022-12-22T04:26:59.262Z,58.93
2022-12-22T04:29:26.510Z,58.72
2022-12-22T04:31:53.948Z,59.02
2022-12-22T04:34:21.427Z,58.40
2022-12-22T04:36:48.702Z,59.33
2022-12-22T04:39:16.074Z,58.59
2022-12-22T04:41:44.600Z,59.22
2022-12-22T04:44:11.926Z,58.57
2022-12-22T04:46:39.264Z,58.29
2022-12-22T04:49:06.701Z,57.51
2022-12-22T04:51:35.687Z,57.82
2022-12-22T04:54:03.087Z,57.61
2022-12-22T04:56:30.551Z,57.68
2022-12-22T04:58:58.224Z,57.32
2022-12-22T05:01:25.806Z,56.40
2022-12-22T05:03:53.591Z,55.38
2022-12-22T05:06:21.091Z,55.99
2022-12-22T05:08:48.435Z,55.76
2022-12-22T05:11:15.865Z,54.61
2022-12-22T05:13:43.210Z,55.33
2022-12-22T05:16:15.079Z,54.81
2022-12-22T05:18:45.509Z,56.74
2022-12-22T05:21:21.090Z,57.13
2022-12-22T05:23:50.237Z,55.34
2022-12-22T05:26:19.921Z,55.60
2022-12-22T05:28:48.126Z,55.69
2022-12-22T05:31:23.643Z,55.68
2022-12-22T05:33:51.780Z,55.89
2022-12-22T05:36:20.137Z,55.26
2022-12-22T05:38:47.622Z,56.00
2022-12-22T05:41:15.165Z,55.76
2022-12-22T05:43:42.616Z,55.65
2022-12-22T05:46:12.215Z,55.97
2022-12-22T05:48:40.363Z,55.12
2022-12-22T05:51:10.231Z,55.20
2022-12-22T05:53:41.726Z,55.47
2022-12-22T05:56:12.196Z,56.26
2022-12-22T05:58:40.020Z,56.40
2022-12-22T06:01:08.043Z,57.08
2022-12-22T06:03:35.685Z,55.48
2022-12-22T06:06:03.236Z,54.95
2022-12-22T06:08:31.160Z,55.49
2022-12-22T06:10:59.117Z,55.58
2022-12-22T06:13:27.241Z,55.46
2022-12-22T06:15:54.925Z,56.23
2022-12-22T06:18:22.307Z,55.80
2022-12-22T06:20:52.456Z,54.80
2022-12-22T06:23:21.474Z,55.59
2022-12-22T06:25:59.491Z,55.92
2022-12-22T06:28:28.527Z,56.12
2022-12-22T06:30:56.415Z,56.25
2022-12-22T06:33:24.073Z,55.90
2022-12-22T06:35:57.970Z,56.92
2022-12-22T06:38:28.464Z,57.02
2022-12-22T06:40:56.379Z,56.31
2022-12-22T06:43:23.924Z,55.41
2022-12-22T06:45:51.474Z,55.34
2022-12-22T06:48:19.417Z,55.49
2022-12-22T06:50:47.094Z,56.12
2022-12-22T06:53:14.919Z,56.18
2022-12-22T06:55:42.666Z,55.54
2022-12-22T06:58:10.159Z,55.22
2022-12-22T07:00:38.694Z,55.05
2022-12-22T07:03:06.267Z,55.47
2022-12-22T07:05:34.016Z,55.16
2022-12-22T07:08:08.117Z,55.51
2022-12-22T07:10:55.648Z,55.43
2022-12-22T07:13:34.778Z,55.27
2022-12-22T07:16:08.923Z,54.18
2022-12-22T07:18:43.477Z,54.36
2022-12-22T07:21:14.272Z,55.79
2022-12-22T07:23:41.882Z,54.85
2022-12-22T07:26:11.210Z,55.34
2022-12-22T07:28:41.417Z,53.51
2022-12-22T07:31:10.902Z,55.04
2022-12-22T07:33:39.042Z,55.59
2022-12-22T07:36:13.946Z,55.01
2022-12-22T07:38:46.268Z,54.15
2022-12-22T07:41:36.314Z,55.12
2022-12-22T07:44:08.079Z,55.80
2022-12-22T07:46:39.323Z,54.96
2022-12-22T07:49:26.755Z,54.04
2022-12-22T07:51:58.584Z,55.27
2022-12-22T07:54:27.943Z,55.94
2022-12-22T07:56:55.385Z,56.54
2022-12-22T08:04:48.408Z,61.55
2022-12-22T08:07:16.055Z,61.15
2022-12-22T08:09:43.556Z,59.83
2022-12-22T08:12:10.892Z,61.34
2022-12-22T08:14:38.207Z,59.80
2022-12-22T08:17:05.677Z,61.77
2022-12-22T08:19:33.015Z,59.04
2022-12-22T08:22:01.287Z,58.88
2022-12-22T08:24:29.580Z,58.20
2022-12-22T08:27:06.105Z,58.08
2022-12-22T08:29:42.887Z,58.68
2022-12-22T08:32:13.706Z,58.00
2022-12-22T08:34:41.500Z,58.71
2022-12-22T08:37:16.940Z,58.70
2022-12-22T08:39:50.705Z,58.97
2022-12-22T08:42:21.130Z,57.56
2022-12-22T08:44:53.457Z,54.93
2022-12-22T08:47:22.897Z,56.09
2022-12-22T08:49:50.412Z,55.16
2022-12-22T08:52:19.381Z,54.69
2022-12-22T08:54:47.941Z,54.17
2022-12-22T08:57:15.832Z,52.51
2022-12-22T08:59:43.100Z,51.75
2022-12-22T09:02:13.523Z,52.79
2022-12-22T09:04:40.828Z,50.27
2022-12-22T09:07:08.300Z,49.58
2022-12-22T09:09:35.802Z,49.11
2022-12-22T09:12:04.070Z,47.26
2022-12-22T09:14:32.729Z,46.17
2022-12-22T09:17:00.420Z,46.66
2022-12-22T09:19:27.891Z,45.89
2022-12-22T09:21:55.894Z,47.45
2022-12-22T09:24:23.158Z,46.48
2022-12-22T09:26:50.727Z,48.21
2022-12-22T09:29:18.084Z,52.12
2022-12-22T09:31:46.133Z,55.42
2022-12-22T09:34:18.168Z,55.16
2022-12-22T09:36:47.817Z,56.97
2022-12-22T09:39:16.149Z,58.10
2022-12-22T09:41:56.134Z,60.07
2022-12-22T09:44:32.151Z,61.09
2022-12-22T09:47:22.898Z,62.40
2022-12-22T09:49:54.096Z,63.00
2022-12-22T09:52:36.136Z,63.75
2022-12-22T09:55:36.396Z,63.75
2022-12-22T09:58:03.983Z,64.16
2022-12-22T10:00:35.929Z,62.78
2022-12-22T10:03:34.395Z,62.76
2022-12-22T10:06:52.211Z,63.30
2022-12-22T10:09:49.572Z,62.73
2022-12-22T10:12:25.884Z,61.17
2022-12-22T10:14:55.471Z,62.87
2022-12-22T10:17:33.681Z,63.08
2022-12-22T10:20:21.928Z,63.99
2022-12-22T10:23:04.281Z,63.76
2022-12-22T10:26:17.092Z,62.50
2022-12-22T10:28:37.062Z,61.86
2022-12-22T10:31:31.394Z,60.93
2022-12-22T10:34:17.483Z,61.61
2022-12-22T10:36:59.650Z,60.95
2022-12-22T10:39:33.242Z,60.65
2022-12-22T10:42:11.077Z,62.25
2022-12-22T10:44:40.116Z,62.50
2022-12-22T10:47:25.602Z,61.73
2022-12-22T10:52:33.083Z,61.76
2022-12-22T10:55:30.732Z,62.49
2022-12-22T10:58:10.562Z,61.67
2022-12-22T11:00:39.239Z,61.32
2022-12-22T11:03:19.063Z,62.49
2022-12-22T11:05:52.264Z,63.21
2022-12-22T11:08:21.309Z,63.14
2022-12-22T11:11:09.923Z,63.07
2022-12-22T11:13:55.423Z,62.58
2022-12-22T11:16:54.519Z,63.00
2022-12-22T11:19:55.253Z,60.58
2022-12-22T11:23:01.162Z,61.35
2022-12-22T11:25:57.791Z,59.96
2022-12-22T11:29:03.583Z,58.14
2022-12-22T11:32:29.899Z,57.79
2022-12-22T11:35:28.058Z,58.60
2022-12-22T11:38:27.371Z,56.34
2022-12-22T11:41:10.861Z,59.01
2022-12-22T11:44:21.139Z,58.96
2022-12-22T11:47:32.923Z,58.85
2022-12-22T11:50:58.573Z,58.24
2022-12-22T11:53:50.674Z,57.11
2022-12-22T11:56:37.006Z,57.25
2022-12-22T11:59:19.663Z,56.20
2022-12-22T12:02:02.535Z,56.56
2022-12-22T12:04:41.909Z,55.73
2022-12-22T12:07:53.656Z,55.63
2022-12-22T12:10:35.373Z,54.96
2022-12-22T12:13:36.591Z,55.29
2022-12-22T12:16:45.636Z,53.88
2022-12-22T12:20:06.167Z,53.72
2022-12-22T12:23:10.828Z,53.37
2022-12-22T12:26:07.200Z,52.80
2022-12-22T12:29:06.347Z,52.06
2022-12-22T12:32:06.056Z,52.99
2022-12-22T12:34:45.438Z,51.93
2022-12-22T12:37:34.439Z,51.38
2022-12-22T12:41:05.852Z,50.53
2022-12-22T12:43:35.127Z,52.20
2022-12-22T12:46:59.805Z,51.44
2022-12-22T12:49:36.512Z,50.52
2022-12-22T12:52:10.387Z,51.26
2022-12-22T12:54:43.373Z,50.20
2022-12-22T12:57:31.002Z,50.75
2022-12-22T13:00:00.741Z,51.63
2022-12-22T13:02:32.169Z,49.82
2022-12-22T13:05:11.785Z,49.58
2022-12-22T13:08:22.297Z,50.50
2022-12-22T13:11:31.110Z,49.24
2022-12-22T13:14:03.240Z,50.42
2022-12-22T13:16:38.348Z,49.84
2022-12-22T13:19:20.014Z,49.97
2022-12-22T13:21:53.299Z,47.66
2022-12-22T13:24:30.148Z,49.05
2022-12-22T13:27:11.270Z,48.67
2022-12-22T13:30:22.469Z,50.86
2022-12-22T13:33:02.398Z,51.70
2022-12-22T13:35:58.877Z,50.93
2022-12-22T13:38:45.795Z,51.36
2022-12-22T13:41:27.663Z,51.27
2022-12-22T13:44:12.759Z,52.69
2022-12-22T13:46:47.196Z,53.13
2022-12-22T13:49:43.785Z,52.63
2022-12-22T13:52:18.663Z,52.04
2022-12-22T13:54:50.693Z,51.57
2022-12-22T13:57:24.258Z,52.37
2022-12-22T14:00:01.072Z,52.15
2022-12-22T14:02:40.251Z,50.68
2022-12-22T14:05:20.395Z,50.65
2022-12-22T14:08:04.756Z,50.19
2022-12-22T14:10:45.071Z,50.35
2022-12-22T14:13:19.157Z,50.08
2022-12-22T14:15:47.350Z,49.07
2022-12-22T14:18:24.634Z,49.87
2022-12-22T14:20:52.952Z,49.52
2022-12-22T14:23:24.727Z,49.70
2022-12-22T14:25:55.887Z,49.68
2022-12-22T14:28:30.435Z,50.65
2022-12-22T14:31:01.151Z,51.17
2022-12-22T14:33:32.523Z,52.02
2022-12-22T14:36:17.944Z,51.54
2022-12-22T14:38:51.252Z,51.22
2022-12-22T14:41:43.254Z,51.62
2022-12-22T14:44:22.852Z,50.54
2022-12-22T14:47:17.760Z,50.90
2022-12-22T14:49:56.036Z,50.83
2022-12-22T14:52:39.356Z,51.64
2022-12-22T14:55:43.087Z,52.94
2022-12-22T14:58:10.505Z,52.46
2022-12-22T15:00:45.969Z,52.91
2022-12-22T15:03:34.679Z,52.71
2022-12-22T15:06:27.172Z,52.29
2022-12-22T15:09:47.102Z,53.36
2022-12-22T15:12:18.558Z,53.33
2022-12-22T15:14:48.847Z,53.20
2022-12-22T15:17:25.987Z,53.93
2022-12-22T15:19:59.270Z,53.21
2022-12-22T15:22:27.427Z,52.87
2022-12-22T15:24:55.329Z,52.67
2022-12-22T15:27:22.921Z,53.50
2022-12-22T15:29:50.403Z,52.60
2022-12-22T15:32:18.081Z,53.48
2022-12-22T15:34:45.979Z,53.58
2022-12-22T15:37:13.195Z,53.22
2022-12-22T15:39:41.211Z,53.72
2022-12-22T15:42:09.060Z,52.88
2022-12-22T15:44:38.898Z,52.40
2022-12-22T15:47:12.031Z,53.77
2022-12-22T15:49:40.082Z,53.75
2022-12-22T15:52:13.095Z,53.62
2022-12-22T15:54:40.518Z,54.53
2022-12-22T15:57:14.365Z,53.86
2022-12-22T15:59:41.966Z,54.80
2022-12-22T16:02:13.496Z,54.15
2022-12-22T16:04:41.029Z,53.92
2022-12-22T16:07:12.466Z,53.85
2022-12-22T16:09:46.864Z,53.57
2022-12-22T16:12:18.991Z,55.01
2022-12-22T16:14:53.369Z,54.13
2022-12-22T16:17:25.730Z,53.49
2022-12-22T16:19:53.580Z,53.80
2022-12-22T16:22:33.673Z,53.48
2022-12-22T16:25:07.039Z,53.18
2022-12-22T16:27:35.916Z,53.33
2022-12-22T16:30:04.671Z,53.46
2022-12-22T16:32:32.769Z,54.07
2022-12-22T16:35:15.754Z,53.43
2022-12-22T16:37:43.814Z,53.86
2022-12-22T16:40:13.052Z,53.84
2022-12-22T16:45:45.725Z,52.87
2022-12-22T16:48:40.499Z,53.85
2022-12-22T16:51:15.584Z,54.22
2022-12-22T16:53:43.293Z,54.53
2022-12-22T16:56:23.519Z,54.83
2022-12-22T16:58:51.621Z,54.95
2022-12-22T17:01:55.768Z,54.91
2022-12-22T17:04:36.644Z,55.37
2022-12-22T17:07:05.258Z,55.14
2022-12-22T17:09:53.596Z,55.33
2022-12-22T17:12:34.715Z,55.28
2022-12-22T17:15:02.416Z,55.15
2022-12-22T17:17:35.536Z,55.88
2022-12-22T17:20:07.559Z,54.96
2022-12-22T17:22:35.056Z,54.90
2022-12-22T17:25:06.941Z,55.11
2022-12-22T17:27:35.171Z,55.15
2022-12-22T17:30:03.903Z,55.62
2022-12-22T17:32:31.560Z,55.76
2022-12-22T17:34:58.842Z,55.37
2022-12-22T17:37:29.785Z,55.13
2022-12-22T17:40:01.709Z,55.75
2022-12-22T17:42:31.538Z,55.61
2022-12-22T17:44:59.414Z,55.54
2022-12-22T17:47:33.269Z,55.78
2022-12-22T17:50:02.208Z,55.79
2022-12-22T17:52:29.517Z,55.88
2022-12-22T17:54:57.130Z,55.71
2022-12-22T17:57:36.503Z,56.00
2022-12-22T18:00:17.803Z,55.52
2022-12-22T18:02:46.149Z,56.11
2022-12-22T18:05:20.250Z,56.18
2022-12-22T18:07:50.059Z,58.31
2022-12-22T18:10:30.585Z,59.46
2022-12-22T18:13:01.412Z,58.26
2022-12-22T18:15:32.147Z,58.11
2022-12-22T18:18:00.338Z,58.14
2022-12-22T18:20:29.416Z,57.12
2022-12-22T18:23:18.736Z,57.13
2022-12-22T18:26:31.881Z,56.94
2022-12-22T18:29:16.479Z,58.53
2022-12-22T18:32:27.874Z,57.71
2022-12-22T18:35:09.427Z,58.21
2022-12-22T18:37:47.025Z,58.00
2022-12-22T18:40:43.984Z,58.95
2022-12-22T18:43:19.598Z,58.25
2022-12-22T18:45:54.333Z,57.82
2022-12-22T18:48:33.080Z,58.80
2022-12-22T18:51:26.024Z,57.46
2022-12-22T18:53:57.571Z,57.34
2022-12-22T18:56:36.879Z,57.25
2022-12-22T18:59:35.998Z,54.68
2022-12-22T19:02:33.163Z,54.76
2022-12-22T19:05:08.784Z,54.52
2022-12-22T19:07:42.531Z,53.52
2022-12-22T19:10:28.118Z,53.17
2022-12-22T19:13:16.324Z,53.18
2022-12-22T19:16:22.487Z,52.51
2022-12-22T19:18:58.135Z,53.09
2022-12-22T19:21:36.804Z,54.55
2022-12-22T19:24:08.722Z,54.68
2022-12-22T19:26:55.492Z,54.35
2022-12-22T19:29:37.478Z,54.42
2022-12-22T19:32:44.270Z,54.14
2022-12-22T19:35:24.716Z,54.67
2022-12-22T19:37:53.719Z,55.16
2022-12-22T19:40:28.965Z,55.25
2022-12-22T19:43:04.099Z,55.08
2022-12-22T19:45:35.855Z,54.77
2022-12-22T19:48:16.092Z,55.17
2022-12-22T19:50:44.212Z,56.33
2022-12-22T19:53:13.447Z,56.70
2022-12-22T19:55:52.275Z,57.13
2022-12-22T19:58:37.198Z,56.84
2022-12-22T20:01:11.569Z,56.29
2022-12-22T20:03:42.429Z,57.22
2022-12-22T20:06:16.118Z,56.43
2022-12-22T20:08:54.176Z,57.13
2022-12-22T20:11:29.269Z,56.72
2022-12-22T20:14:02.811Z,56.43
2022-12-22T20:16:31.155Z,56.40
2022-12-22T20:19:14.075Z,58.30
2022-12-22T20:21:57.278Z,58.83
2022-12-22T20:24:33.570Z,58.84
2022-12-22T20:27:37.309Z,56.85
2022-12-22T20:30:05.834Z,57.99
2022-12-22T20:32:36.791Z,57.88
2022-12-22T20:35:14.460Z,58.58
2022-12-22T20:37:49.111Z,58.88
2022-12-22T20:40:32.049Z,58.68
2022-12-22T20:43:24.269Z,58.96
2022-12-22T20:46:01.779Z,59.33
2022-12-22T20:48:47.454Z,58.54
2022-12-22T20:55:50.202Z,59.47
2022-12-22T20:58:22.734Z,59.73
2022-12-22T21:00:58.025Z,59.38
2022-12-22T21:03:26.931Z,59.87
2022-12-22T21:05:55.130Z,60.05
2022-12-22T21:08:29.413Z,59.99
2022-12-22T21:10:57.848Z,59.69
2022-12-22T21:16:31.190Z,59.77
2022-12-22T21:18:25.806Z,59.98
2022-12-22T21:21:01.582Z,59.06
2022-12-22T21:23:33.061Z,60.20
2022-12-22T21:26:11.150Z,61.08
2022-12-22T21:28:49.519Z,60.06
2022-12-22T21:31:20.848Z,60.33
2022-12-22T21:33:52.559Z,58.91
2022-12-22T21:36:30.827Z,59.72
2022-12-22T21:39:15.180Z,61.56
2022-12-22T21:42:01.448Z,62.29
2022-12-22T21:44:32.900Z,62.69
2022-12-22T21:47:06.559Z,65.61
2022-12-22T21:49:34.796Z,65.97
2022-12-22T21:52:02.486Z,67.70
2022-12-22T21:54:30.374Z,68.67
2022-12-22T21:57:00.910Z,68.54
2022-12-22T21:59:31.632Z,67.85
2022-12-22T22:01:59.406Z,67.46
2022-12-22T22:04:27.082Z,69.50
2022-12-22T22:06:54.409Z,69.39
2022-12-22T22:09:21.971Z,69.92
2022-12-22T22:12:08.599Z,69.63
2022-12-22T22:14:36.361Z,69.70
2022-12-22T22:17:03.887Z,70.85
2022-12-22T22:19:31.324Z,71.16
2022-12-22T22:21:59.016Z,69.73
2022-12-22T22:24:26.497Z,70.17
2022-12-22T22:26:55.938Z,70.21
2022-12-22T22:29:23.442Z,69.32
2022-12-22T22:31:50.853Z,70.10
2022-12-22T22:34:18.474Z,71.10
2022-12-22T22:36:45.919Z,72.27
2022-12-22T22:39:13.536Z,72.25
2022-12-22T22:41:43.496Z,73.04
2022-12-22T22:44:11.900Z,72.07
2022-12-22T22:46:39.437Z,71.57
2022-12-22T22:49:28.089Z,71.18
2022-12-22T22:51:56.392Z,69.83
2022-12-22T22:54:23.870Z,70.15
2022-12-22T22:56:52.747Z,69.58
2022-12-22T22:59:25.386Z,70.16
2022-12-22T23:01:52.843Z,70.64
2022-12-22T23:04:20.411Z,70.90
2022-12-22T23:06:47.944Z,70.08
2022-12-22T23:09:15.597Z,69.42
2022-12-22T23:11:43.005Z,70.03
2022-12-22T23:14:10.500Z,69.89
2022-12-22T23:16:38.888Z,70.56
2022-12-22T23:19:06.551Z,70.60
2022-12-22T23:21:34.802Z,70.89
2022-12-22T23:24:02.578Z,70.62
2022-12-22T23:26:29.965Z,70.31
2022-12-22T23:29:02.951Z,70.67
2022-12-22T23:31:33.843Z,70.44
2022-12-22T23:34:06.268Z,70.70
2022-12-22T23:36:33.912Z,70.12
2022-12-22T23:39:01.715Z,70.71
2022-12-22T23:41:29.252Z,70.60
2022-12-22T23:43:56.978Z,70.47
2022-12-22T23:46:24.475Z,68.87
2022-12-22T23:48:55.723Z,67.06
2022-12-22T23:51:29.700Z,68.06
2022-12-22T23:54:01.731Z,66.78
2022-12-22T23:56:30.681Z,68.46
2022-12-22T23:58:58.566Z,65.93
